sensor_id;sensor_type;location;lat;lon;timestamp;P1;durP1;ratioP1;P2;durP2;ratioP2
54815;SDS011;40715;55.752;37.884;2022-10-16T00:01:16;0.00;;;0.00;;
54815;SDS011;40715;55.752;37.884;2022-10-16T00:03:46;0.00;;;0.00;;
54815;SDS011;40715;55.752;37.884;2022-10-16T00:06:15;0.00;;;0.00;;
54815;SDS011;40715;55.752;37.884;2022-10-16T00:08:43;0.00;;;0.00;;
54815;SDS011;40715;55.752;37.884;2022-10-16T00:11:12;0.00;;;0.00;;
54815;SDS011;40715;55.752;37.884;2022-10-16T00:13:45;0.00;;;0.00;;
54815;SDS011;40715;55.752;37.884;2022-10-16T00:16:13;0.00;;;0.00;;
54815;SDS011;40715;55.752;37.884;2022-10-16T00:18:40;0.00;;;0.00;;
54815;SDS011;40715;55.752;37.884;2022-10-16T00:21:15;0.00;;;0.00;;
54815;SDS011;40715;55.752;37.884;2022-10-16T00:24:04;0.00;;;0.00;;
54815;SDS011;40715;55.752;37.884;2022-10-16T00:26:36;0.00;;;0.00;;
54815;SDS011;40715;55.752;37.884;2022-10-16T00:29:04;0.00;;;0.00;;
54815;SDS011;40715;55.752;37.884;2022-10-16T00:31:32;0.00;;;0.00;;
54815;SDS011;40715;55.752;37.884;2022-10-16T00:34:00;0.00;;;0.00;;
54815;SDS011;40715;55.752;37.884;2022-10-16T00:36:27;0.00;;;0.00;;
54815;SDS011;40715;55.752;37.884;2022-10-16T00:38:54;0.00;;;0.00;;
54815;SDS011;40715;55.752;37.884;2022-10-16T00:41:24;0.00;;;0.00;;
54815;SDS011;40715;55.752;37.884;2022-10-16T00:44:00;0.00;;;0.00;;
54815;SDS011;40715;55.752;37.884;2022-10-16T00:46:36;0.00;;;0.00;;
54815;SDS011;40715;55.752;37.884;2022-10-16T00:49:15;0.00;;;0.00;;
54815;SDS011;40715;55.752;37.884;2022-10-16T00:51:45;0.00;;;0.00;;
54815;SDS011;40715;55.752;37.884;2022-10-16T00:54:25;0.00;;;0.00;;
54815;SDS011;40715;55.752;37.884;2022-10-16T00:56:55;0.00;;;0.00;;
54815;SDS011;40715;55.752;37.884;2022-10-16T00:59:32;0.00;;;0.00;;
54815;SDS011;40715;55.752;37.884;2022-10-16T01:02:05;0.00;;;0.00;;
54815;SDS011;40715;55.752;37.884;2022-10-16T01:04:35;0.00;;;0.00;;
54815;SDS011;40715;55.752;37.884;2022-10-16T01:17:45;0.00;;;0.00;;
54815;SDS011;40715;55.752;37.884;2022-10-16T01:28:18;0.00;;;0.00;;
54815;SDS011;40715;55.752;37.884;2022-10-16T01:30:52;0.00;;;0.00;;
54815;SDS011;40715;55.752;37.884;2022-10-16T01:33:25;0.00;;;0.00;;
54815;SDS011;40715;55.752;37.884;2022-10-16T01:36:00;0.00;;;0.00;;
54815;SDS011;40715;55.752;37.884;2022-10-16T01:38:34;0.00;;;0.00;;
54815;SDS011;40715;55.752;37.884;2022-10-16T01:41:26;0.00;;;0.00;;
54815;SDS011;40715;55.752;37.884;2022-10-16T01:44:39;0.00;;;0.00;;
54815;SDS011;40715;55.752;37.884;2022-10-16T01:46:49;0.00;;;0.00;;
54815;SDS011;40715;55.752;37.884;2022-10-16T01:49:18;0.00;;;0.00;;
54815;SDS011;40715;55.752;37.884;2022-10-16T01:51:49;0.00;;;0.00;;
54815;SDS011;40715;55.752;37.884;2022-10-16T01:54:20;0.00;;;0.00;;
54815;SDS011;40715;55.752;37.884;2022-10-16T01:56:51;0.00;;;0.00;;
54815;SDS011;40715;55.752;37.884;2022-10-16T01:59:21;0.00;;;0.00;;
54815;SDS011;40715;55.752;37.884;2022-10-16T02:01:52;0.00;;;0.00;;
54815;SDS011;40715;55.752;37.884;2022-10-16T02:04:28;0.00;;;0.00;;
54815;SDS011;40715;55.752;37.884;2022-10-16T02:06:58;0.00;;;0.00;;
54815;SDS011;40715;55.752;37.884;2022-10-16T02:09:25;0.00;;;0.00;;
54815;SDS011;40715;55.752;37.884;2022-10-16T02:11:53;0.00;;;0.00;;
54815;SDS011;40715;55.752;37.884;2022-10-16T02:14:23;0.00;;;0.00;;
54815;SDS011;40715;55.752;37.884;2022-10-16T02:16:51;0.00;;;0.00;;
54815;SDS011;40715;55.752;37.884;2022-10-16T02:19:18;0.00;;;0.00;;
54815;SDS011;40715;55.752;37.884;2022-10-16T02:21:51;0.00;;;0.00;;
54815;SDS011;40715;55.752;37.884;2022-10-16T02:24:31;0.00;;;0.00;;
54815;SDS011;40715;55.752;37.884;2022-10-16T02:27:23;0.00;;;0.00;;
54815;SDS011;40715;55.752;37.884;2022-10-16T02:30:05;0.00;;;0.00;;
54815;SDS011;40715;55.752;37.884;2022-10-16T02:32:41;0.00;;;0.00;;
54815;SDS011;40715;55.752;37.884;2022-10-16T02:35:11;0.00;;;0.00;;
54815;SDS011;40715;55.752;37.884;2022-10-16T02:37:39;0.00;;;0.00;;
54815;SDS011;40715;55.752;37.884;2022-10-16T02:40:07;0.00;;;0.00;;
54815;SDS011;40715;55.752;37.884;2022-10-16T02:42:35;0.00;;;0.00;;
54815;SDS011;40715;55.752;37.884;2022-10-16T02:45:07;0.00;;;0.00;;
54815;SDS011;40715;55.752;37.884;2022-10-16T02:47:35;0.00;;;0.00;;
54815;SDS011;40715;55.752;37.884;2022-10-16T02:50:02;0.00;;;0.00;;
54815;SDS011;40715;55.752;37.884;2022-10-16T02:52:30;0.00;;;0.00;;
54815;SDS011;40715;55.752;37.884;2022-10-16T02:54:57;0.00;;;0.00;;
54815;SDS011;40715;55.752;37.884;2022-10-16T02:57:24;0.00;;;0.00;;
54815;SDS011;40715;55.752;37.884;2022-10-16T02:59:51;0.00;;;0.00;;
54815;SDS011;40715;55.752;37.884;2022-10-16T03:02:18;0.00;;;0.00;;
54815;SDS011;40715;55.752;37.884;2022-10-16T03:04:45;0.00;;;0.00;;
54815;SDS011;40715;55.752;37.884;2022-10-16T03:07:11;0.00;;;0.00;;
54815;SDS011;40715;55.752;37.884;2022-10-16T03:09:38;0.00;;;0.00;;
54815;SDS011;40715;55.752;37.884;2022-10-16T03:12:06;0.00;;;0.00;;
54815;SDS011;40715;55.752;37.884;2022-10-16T03:14:34;0.00;;;0.00;;
54815;SDS011;40715;55.752;37.884;2022-10-16T03:17:01;0.00;;;0.00;;
54815;SDS011;40715;55.752;37.884;2022-10-16T03:19:28;0.00;;;0.00;;
54815;SDS011;40715;55.752;37.884;2022-10-16T03:21:55;0.00;;;0.00;;
54815;SDS011;40715;55.752;37.884;2022-10-16T03:24:21;0.00;;;0.00;;
54815;SDS011;40715;55.752;37.884;2022-10-16T03:26:48;0.00;;;0.00;;
54815;SDS011;40715;55.752;37.884;2022-10-16T03:29:15;0.00;;;0.00;;
54815;SDS011;40715;55.752;37.884;2022-10-16T03:31:42;0.00;;;0.00;;
54815;SDS011;40715;55.752;37.884;2022-10-16T03:34:09;0.00;;;0.00;;
54815;SDS011;40715;55.752;37.884;2022-10-16T03:36:36;0.00;;;0.00;;
54815;SDS011;40715;55.752;37.884;2022-10-16T03:39:03;0.00;;;0.00;;
54815;SDS011;40715;55.752;37.884;2022-10-16T03:41:30;0.00;;;0.00;;
54815;SDS011;40715;55.752;37.884;2022-10-16T03:43:57;0.15;;;0.00;;
54815;SDS011;40715;55.752;37.884;2022-10-16T03:46:23;0.00;;;0.00;;
54815;SDS011;40715;55.752;37.884;2022-10-16T03:48:50;0.00;;;0.00;;
54815;SDS011;40715;55.752;37.884;2022-10-16T03:51:17;0.00;;;0.00;;
54815;SDS011;40715;55.752;37.884;2022-10-16T03:53:44;0.00;;;0.00;;
54815;SDS011;40715;55.752;37.884;2022-10-16T03:56:11;0.00;;;0.00;;
54815;SDS011;40715;55.752;37.884;2022-10-16T03:58:38;0.00;;;0.00;;
54815;SDS011;40715;55.752;37.884;2022-10-16T04:01:05;0.00;;;0.00;;
54815;SDS011;40715;55.752;37.884;2022-10-16T04:03:33;0.00;;;0.00;;
54815;SDS011;40715;55.752;37.884;2022-10-16T04:05:59;0.00;;;0.00;;
54815;SDS011;40715;55.752;37.884;2022-10-16T04:08:26;0.00;;;0.00;;
54815;SDS011;40715;55.752;37.884;2022-10-16T04:10:53;0.00;;;0.00;;
54815;SDS011;40715;55.752;37.884;2022-10-16T04:13:20;0.00;;;0.00;;
54815;SDS011;40715;55.752;37.884;2022-10-16T04:15:47;0.00;;;0.00;;
54815;SDS011;40715;55.752;37.884;2022-10-16T04:18:14;0.00;;;0.00;;
54815;SDS011;40715;55.752;37.884;2022-10-16T04:20:41;0.00;;;0.00;;
54815;SDS011;40715;55.752;37.884;2022-10-16T04:23:08;0.00;;;0.00;;
54815;SDS011;40715;55.752;37.884;2022-10-16T04:25:35;0.00;;;0.00;;
54815;SDS011;40715;55.752;37.884;2022-10-16T04:28:02;0.00;;;0.00;;
54815;SDS011;40715;55.752;37.884;2022-10-16T04:30:29;0.00;;;0.00;;
54815;SDS011;40715;55.752;37.884;2022-10-16T04:32:55;0.00;;;0.00;;
54815;SDS011;40715;55.752;37.884;2022-10-16T04:35:22;0.00;;;0.00;;
54815;SDS011;40715;55.752;37.884;2022-10-16T04:37:49;0.00;;;0.00;;
54815;SDS011;40715;55.752;37.884;2022-10-16T04:40:16;0.00;;;0.00;;
54815;SDS011;40715;55.752;37.884;2022-10-16T04:42:43;0.00;;;0.00;;
54815;SDS011;40715;55.752;37.884;2022-10-16T04:45:10;0.00;;;0.00;;
54815;SDS011;40715;55.752;37.884;2022-10-16T04:47:38;0.00;;;0.00;;
54815;SDS011;40715;55.752;37.884;2022-10-16T04:50:05;0.00;;;0.00;;
54815;SDS011;40715;55.752;37.884;2022-10-16T04:52:33;0.00;;;0.00;;
54815;SDS011;40715;55.752;37.884;2022-10-16T04:55:05;0.00;;;0.00;;
54815;SDS011;40715;55.752;37.884;2022-10-16T04:57:32;0.00;;;0.00;;
54815;SDS011;40715;55.752;37.884;2022-10-16T04:59:59;0.00;;;0.00;;
54815;SDS011;40715;55.752;37.884;2022-10-16T05:02:29;0.00;;;0.00;;
54815;SDS011;40715;55.752;37.884;2022-10-16T05:04:55;0.00;;;0.00;;
54815;SDS011;40715;55.752;37.884;2022-10-16T05:07:22;0.00;;;0.00;;
54815;SDS011;40715;55.752;37.884;2022-10-16T05:09:50;0.00;;;0.00;;
54815;SDS011;40715;55.752;37.884;2022-10-16T05:12:17;0.00;;;0.00;;
54815;SDS011;40715;55.752;37.884;2022-10-16T05:14:47;0.00;;;0.00;;
54815;SDS011;40715;55.752;37.884;2022-10-16T05:17:13;0.00;;;0.00;;
54815;SDS011;40715;55.752;37.884;2022-10-16T05:19:40;0.00;;;0.00;;
54815;SDS011;40715;55.752;37.884;2022-10-16T05:22:11;0.00;;;0.00;;
54815;SDS011;40715;55.752;37.884;2022-10-16T05:24:39;0.10;;;0.10;;
54815;SDS011;40715;55.752;37.884;2022-10-16T05:27:06;0.00;;;0.00;;
54815;SDS011;40715;55.752;37.884;2022-10-16T05:29:33;0.00;;;0.00;;
54815;SDS011;40715;55.752;37.884;2022-10-16T05:32:01;0.10;;;0.10;;
54815;SDS011;40715;55.752;37.884;2022-10-16T05:34:29;0.00;;;0.00;;
54815;SDS011;40715;55.752;37.884;2022-10-16T05:36:56;0.10;;;0.10;;
54815;SDS011;40715;55.752;37.884;2022-10-16T05:39:23;0.10;;;0.10;;
54815;SDS011;40715;55.752;37.884;2022-10-16T05:41:50;0.10;;;0.10;;
54815;SDS011;40715;55.752;37.884;2022-10-16T05:44:17;0.10;;;0.10;;
54815;SDS011;40715;55.752;37.884;2022-10-16T05:46:45;0.10;;;0.10;;
54815;SDS011;40715;55.752;37.884;2022-10-16T05:49:12;0.10;;;0.10;;
54815;SDS011;40715;55.752;37.884;2022-10-16T05:51:39;0.20;;;0.20;;
54815;SDS011;40715;55.752;37.884;2022-10-16T05:54:11;0.10;;;0.10;;
54815;SDS011;40715;55.752;37.884;2022-10-16T05:56:38;0.10;;;0.10;;
54815;SDS011;40715;55.752;37.884;2022-10-16T05:59:08;0.10;;;0.10;;
54815;SDS011;40715;55.752;37.884;2022-10-16T06:01:37;0.20;;;0.20;;
54815;SDS011;40715;55.752;37.884;2022-10-16T06:04:05;0.20;;;0.20;;
54815;SDS011;40715;55.752;37.884;2022-10-16T06:06:31;0.20;;;0.20;;
54815;SDS011;40715;55.752;37.884;2022-10-16T06:08:58;0.20;;;0.20;;
54815;SDS011;40715;55.752;37.884;2022-10-16T06:11:27;0.20;;;0.20;;
54815;SDS011;40715;55.752;37.884;2022-10-16T06:13:57;0.20;;;0.20;;
54815;SDS011;40715;55.752;37.884;2022-10-16T06:16:27;0.20;;;0.20;;
54815;SDS011;40715;55.752;37.884;2022-10-16T06:18:54;0.30;;;0.30;;
54815;SDS011;40715;55.752;37.884;2022-10-16T06:21:28;0.30;;;0.30;;
54815;SDS011;40715;55.752;37.884;2022-10-16T06:23:56;0.30;;;0.30;;
54815;SDS011;40715;55.752;37.884;2022-10-16T06:26:24;0.30;;;0.30;;
54815;SDS011;40715;55.752;37.884;2022-10-16T06:28:54;0.30;;;0.30;;
54815;SDS011;40715;55.752;37.884;2022-10-16T06:31:22;0.30;;;0.30;;
54815;SDS011;40715;55.752;37.884;2022-10-16T06:33:52;0.30;;;0.30;;
54815;SDS011;40715;55.752;37.884;2022-10-16T06:36:19;0.20;;;0.20;;
54815;SDS011;40715;55.752;37.884;2022-10-16T06:38:46;0.30;;;0.30;;
54815;SDS011;40715;55.752;37.884;2022-10-16T06:41:14;0.30;;;0.30;;
54815;SDS011;40715;55.752;37.884;2022-10-16T06:43:44;0.40;;;0.40;;
54815;SDS011;40715;55.752;37.884;2022-10-16T06:46:15;0.30;;;0.30;;
54815;SDS011;40715;55.752;37.884;2022-10-16T06:48:43;0.40;;;0.40;;
54815;SDS011;40715;55.752;37.884;2022-10-16T06:51:11;0.40;;;0.40;;
54815;SDS011;40715;55.752;37.884;2022-10-16T06:53:41;0.60;;;0.60;;
54815;SDS011;40715;55.752;37.884;2022-10-16T06:56:27;0.50;;;0.50;;
54815;SDS011;40715;55.752;37.884;2022-10-16T06:58:56;0.60;;;0.60;;
54815;SDS011;40715;55.752;37.884;2022-10-16T07:01:23;0.60;;;0.60;;
54815;SDS011;40715;55.752;37.884;2022-10-16T07:03:51;0.60;;;0.60;;
54815;SDS011;40715;55.752;37.884;2022-10-16T07:06:19;0.50;;;0.50;;
54815;SDS011;40715;55.752;37.884;2022-10-16T07:08:47;0.60;;;0.60;;
54815;SDS011;40715;55.752;37.884;2022-10-16T07:11:15;0.60;;;0.60;;
54815;SDS011;40715;55.752;37.884;2022-10-16T07:13:47;0.65;;;0.65;;
54815;SDS011;40715;55.752;37.884;2022-10-16T07:16:20;0.63;;;0.63;;
54815;SDS011;40715;55.752;37.884;2022-10-16T07:18:49;0.70;;;0.70;;
54815;SDS011;40715;55.752;37.884;2022-10-16T07:21:19;0.90;;;0.90;;
54815;SDS011;40715;55.752;37.884;2022-10-16T07:23:50;1.00;;;1.00;;
54815;SDS011;40715;55.752;37.884;2022-10-16T07:26:22;1.10;;;1.10;;
54815;SDS011;40715;55.752;37.884;2022-10-16T07:28:49;1.20;;;1.20;;
54815;SDS011;40715;55.752;37.884;2022-10-16T07:31:18;1.00;;;1.00;;
54815;SDS011;40715;55.752;37.884;2022-10-16T07:33:46;1.08;;;1.08;;
54815;SDS011;40715;55.752;37.884;2022-10-16T07:36:18;1.00;;;1.00;;
54815;SDS011;40715;55.752;37.884;2022-10-16T07:38:46;1.00;;;1.00;;
54815;SDS011;40715;55.752;37.884;2022-10-16T07:41:15;0.80;;;0.80;;
54815;SDS011;40715;55.752;37.884;2022-10-16T07:43:51;1.00;;;1.00;;
54815;SDS011;40715;55.752;37.884;2022-10-16T07:46:19;0.90;;;0.90;;
54815;SDS011;40715;55.752;37.884;2022-10-16T07:48:48;1.05;;;1.05;;
54815;SDS011;40715;55.752;37.884;2022-10-16T07:51:16;1.00;;;1.00;;
54815;SDS011;40715;55.752;37.884;2022-10-16T07:53:45;1.00;;;1.00;;
54815;SDS011;40715;55.752;37.884;2022-10-16T07:56:14;1.10;;;1.10;;
54815;SDS011;40715;55.752;37.884;2022-10-16T07:58:42;0.98;;;0.98;;
54815;SDS011;40715;55.752;37.884;2022-10-16T08:01:10;1.00;;;1.00;;
54815;SDS011;40715;55.752;37.884;2022-10-16T08:03:43;0.90;;;0.90;;
54815;SDS011;40715;55.752;37.884;2022-10-16T08:06:11;1.00;;;1.00;;
54815;SDS011;40715;55.752;37.884;2022-10-16T08:08:39;1.00;;;1.00;;
54815;SDS011;40715;55.752;37.884;2022-10-16T08:11:06;0.93;;;0.93;;
54815;SDS011;40715;55.752;37.884;2022-10-16T08:13:33;1.15;;;1.15;;
54815;SDS011;40715;55.752;37.884;2022-10-16T08:16:01;1.20;;;1.20;;
54815;SDS011;40715;55.752;37.884;2022-10-16T08:18:28;1.30;;;1.30;;
54815;SDS011;40715;55.752;37.884;2022-10-16T08:20:56;1.30;;;1.30;;
54815;SDS011;40715;55.752;37.884;2022-10-16T08:23:27;1.20;;;1.20;;
54815;SDS011;40715;55.752;37.884;2022-10-16T08:25:54;1.10;;;1.10;;
54815;SDS011;40715;55.752;37.884;2022-10-16T08:28:23;1.20;;;1.20;;
54815;SDS011;40715;55.752;37.884;2022-10-16T08:30:50;1.20;;;1.20;;
54815;SDS011;40715;55.752;37.884;2022-10-16T08:33:17;1.30;;;1.30;;
54815;SDS011;40715;55.752;37.884;2022-10-16T08:35:51;1.30;;;1.30;;
54815;SDS011;40715;55.752;37.884;2022-10-16T08:38:20;1.45;;;1.45;;
54815;SDS011;40715;55.752;37.884;2022-10-16T08:40:47;1.20;;;1.20;;
54815;SDS011;40715;55.752;37.884;2022-10-16T08:43:35;0.98;;;0.98;;
54815;SDS011;40715;55.752;37.884;2022-10-16T08:46:25;0.40;;;0.40;;
54815;SDS011;40715;55.752;37.884;2022-10-16T08:48:56;0.30;;;0.30;;
54815;SDS011;40715;55.752;37.884;2022-10-16T08:54:05;0.10;;;0.10;;
54815;SDS011;40715;55.752;37.884;2022-10-16T08:56:36;0.10;;;0.10;;
54815;SDS011;40715;55.752;37.884;2022-10-16T08:59:03;0.00;;;0.00;;
54815;SDS011;40715;55.752;37.884;2022-10-16T09:01:40;0.00;;;0.00;;
54815;SDS011;40715;55.752;37.884;2022-10-16T09:10:00;0.00;;;0.00;;
54815;SDS011;40715;55.752;37.884;2022-10-16T09:15:32;0.00;;;0.00;;
54815;SDS011;40715;55.752;37.884;2022-10-16T09:18:17;0.00;;;0.00;;
54815;SDS011;40715;55.752;37.884;2022-10-16T09:24:09;0.00;;;0.00;;
54815;SDS011;40715;55.752;37.884;2022-10-16T09:26:38;0.00;;;0.00;;
54815;SDS011;40715;55.752;37.884;2022-10-16T09:29:06;0.00;;;0.00;;
54815;SDS011;40715;55.752;37.884;2022-10-16T09:31:33;0.00;;;0.00;;
54815;SDS011;40715;55.752;37.884;2022-10-16T09:34:03;0.00;;;0.00;;
54815;SDS011;40715;55.752;37.884;2022-10-16T09:36:35;0.00;;;0.00;;
54815;SDS011;40715;55.752;37.884;2022-10-16T09:39:11;0.00;;;0.00;;
54815;SDS011;40715;55.752;37.884;2022-10-16T09:41:39;0.00;;;0.00;;
54815;SDS011;40715;55.752;37.884;2022-10-16T09:44:26;0.00;;;0.00;;
54815;SDS011;40715;55.752;37.884;2022-10-16T09:49:30;0.00;;;0.00;;
54815;SDS011;40715;55.752;37.884;2022-10-16T09:52:31;0.00;;;0.00;;
54815;SDS011;40715;55.752;37.884;2022-10-16T09:57:22;0.00;;;0.00;;
54815;SDS011;40715;55.752;37.884;2022-10-16T09:59:50;0.00;;;0.00;;
54815;SDS011;40715;55.752;37.884;2022-10-16T10:02:29;0.00;;;0.00;;
54815;SDS011;40715;55.752;37.884;2022-10-16T10:05:00;0.00;;;0.00;;
54815;SDS011;40715;55.752;37.884;2022-10-16T10:07:33;0.00;;;0.00;;
54815;SDS011;40715;55.752;37.884;2022-10-16T10:10:18;0.00;;;0.00;;
54815;SDS011;40715;55.752;37.884;2022-10-16T10:12:50;0.00;;;0.00;;
54815;SDS011;40715;55.752;37.884;2022-10-16T10:15:17;0.00;;;0.00;;
54815;SDS011;40715;55.752;37.884;2022-10-16T10:17:51;0.00;;;0.00;;
54815;SDS011;40715;55.752;37.884;2022-10-16T10:20:23;0.00;;;0.00;;
54815;SDS011;40715;55.752;37.884;2022-10-16T10:23:13;0.00;;;0.00;;
54815;SDS011;40715;55.752;37.884;2022-10-16T10:31:22;0.00;;;0.00;;
54815;SDS011;40715;55.752;37.884;2022-10-16T10:36:48;0.68;;;0.00;;
54815;SDS011;40715;55.752;37.884;2022-10-16T10:39:40;0.00;;;0.00;;
54815;SDS011;40715;55.752;37.884;2022-10-16T10:45:15;0.00;;;0.00;;
54815;SDS011;40715;55.752;37.884;2022-10-16T10:50:37;0.00;;;0.00;;
54815;SDS011;40715;55.752;37.884;2022-10-16T10:53:30;0.00;;;0.00;;
54815;SDS011;40715;55.752;37.884;2022-10-16T10:56:24;0.00;;;0.00;;
54815;SDS011;40715;55.752;37.884;2022-10-16T11:02:09;0.00;;;0.00;;
54815;SDS011;40715;55.752;37.884;2022-10-16T11:04:50;0.00;;;0.00;;
54815;SDS011;40715;55.752;37.884;2022-10-16T11:10:16;0.00;;;0.00;;
54815;SDS011;40715;55.752;37.884;2022-10-16T11:12:54;0.00;;;0.00;;
54815;SDS011;40715;55.752;37.884;2022-10-16T11:20:34;0.00;;;0.00;;
54815;SDS011;40715;55.752;37.884;2022-10-16T11:23:24;0.00;;;0.00;;
54815;SDS011;40715;55.752;37.884;2022-10-16T11:25:56;0.00;;;0.00;;
54815;SDS011;40715;55.752;37.884;2022-10-16T11:28:32;0.00;;;0.00;;
54815;SDS011;40715;55.752;37.884;2022-10-16T11:39:00;0.00;;;0.00;;
54815;SDS011;40715;55.752;37.884;2022-10-16T11:41:37;0.00;;;0.00;;
54815;SDS011;40715;55.752;37.884;2022-10-16T11:47:12;0.00;;;0.00;;
54815;SDS011;40715;55.752;37.884;2022-10-16T11:50:54;0.00;;;0.00;;
54815;SDS011;40715;55.752;37.884;2022-10-16T11:56:17;0.00;;;0.00;;
54815;SDS011;40715;55.752;37.884;2022-10-16T12:01:32;0.00;;;0.00;;
54815;SDS011;40715;55.752;37.884;2022-10-16T12:09:24;0.00;;;0.00;;
54815;SDS011;40715;55.752;37.884;2022-10-16T12:11:52;0.00;;;0.00;;
54815;SDS011;40715;55.752;37.884;2022-10-16T12:16:59;0.00;;;0.00;;
54815;SDS011;40715;55.752;37.884;2022-10-16T12:19:28;0.00;;;0.00;;
54815;SDS011;40715;55.752;37.884;2022-10-16T12:21:58;0.00;;;0.00;;
54815;SDS011;40715;55.752;37.884;2022-10-16T12:24:36;0.00;;;0.00;;
54815;SDS011;40715;55.752;37.884;2022-10-16T12:27:20;0.00;;;0.00;;
54815;SDS011;40715;55.752;37.884;2022-10-16T12:29:59;0.00;;;0.00;;
54815;SDS011;40715;55.752;37.884;2022-10-16T12:32:33;0.00;;;0.00;;
54815;SDS011;40715;55.752;37.884;2022-10-16T12:35:18;0.00;;;0.00;;
54815;SDS011;40715;55.752;37.884;2022-10-16T12:38:07;0.00;;;0.00;;
54815;SDS011;40715;55.752;37.884;2022-10-16T12:41:02;0.00;;;0.00;;
54815;SDS011;40715;55.752;37.884;2022-10-16T12:43:39;0.00;;;0.00;;
54815;SDS011;40715;55.752;37.884;2022-10-16T12:48:41;0.00;;;0.00;;
54815;SDS011;40715;55.752;37.884;2022-10-16T12:54:11;0.00;;;0.00;;
54815;SDS011;40715;55.752;37.884;2022-10-16T13:07:43;0.00;;;0.00;;
54815;SDS011;40715;55.752;37.884;2022-10-16T13:13:07;0.00;;;0.00;;
54815;SDS011;40715;55.752;37.884;2022-10-16T13:23:55;0.00;;;0.00;;
54815;SDS011;40715;55.752;37.884;2022-10-16T13:29:31;0.00;;;0.00;;
54815;SDS011;40715;55.752;37.884;2022-10-16T13:31:59;0.00;;;0.00;;
54815;SDS011;40715;55.752;37.884;2022-10-16T13:34:33;0.00;;;0.00;;
54815;SDS011;40715;55.752;37.884;2022-10-16T13:37:16;0.00;;;0.00;;
54815;SDS011;40715;55.752;37.884;2022-10-16T13:39:47;0.00;;;0.00;;
54815;SDS011;40715;55.752;37.884;2022-10-16T13:44:53;0.00;;;0.00;;
54815;SDS011;40715;55.752;37.884;2022-10-16T13:47:25;0.03;;;0.00;;
54815;SDS011;40715;55.752;37.884;2022-10-16T13:50:05;0.00;;;0.00;;
54815;SDS011;40715;55.752;37.884;2022-10-16T13:52:37;0.00;;;0.00;;
54815;SDS011;40715;55.752;37.884;2022-10-16T13:55:10;0.00;;;0.00;;
54815;SDS011;40715;55.752;37.884;2022-10-16T13:57:38;0.00;;;0.00;;
54815;SDS011;40715;55.752;37.884;2022-10-16T14:00:27;0.00;;;0.00;;
54815;SDS011;40715;55.752;37.884;2022-10-16T14:03:15;0.00;;;0.00;;
54815;SDS011;40715;55.752;37.884;2022-10-16T14:05:50;0.00;;;0.00;;
54815;SDS011;40715;55.752;37.884;2022-10-16T14:08:43;0.00;;;0.00;;
54815;SDS011;40715;55.752;37.884;2022-10-16T14:11:13;0.00;;;0.00;;
54815;SDS011;40715;55.752;37.884;2022-10-16T14:13:51;0.00;;;0.00;;
54815;SDS011;40715;55.752;37.884;2022-10-16T14:16:20;0.00;;;0.00;;
54815;SDS011;40715;55.752;37.884;2022-10-16T14:18:53;0.00;;;0.00;;
54815;SDS011;40715;55.752;37.884;2022-10-16T14:21:31;0.00;;;0.00;;
54815;SDS011;40715;55.752;37.884;2022-10-16T14:23:59;0.15;;;0.00;;
54815;SDS011;40715;55.752;37.884;2022-10-16T14:26:41;0.00;;;0.00;;
54815;SDS011;40715;55.752;37.884;2022-10-16T14:29:17;0.00;;;0.00;;
54815;SDS011;40715;55.752;37.884;2022-10-16T14:32:04;0.00;;;0.00;;
54815;SDS011;40715;55.752;37.884;2022-10-16T14:34:32;0.00;;;0.00;;
54815;SDS011;40715;55.752;37.884;2022-10-16T14:37:08;0.00;;;0.00;;
54815;SDS011;40715;55.752;37.884;2022-10-16T14:39:52;0.00;;;0.00;;
54815;SDS011;40715;55.752;37.884;2022-10-16T14:42:21;0.00;;;0.00;;
54815;SDS011;40715;55.752;37.884;2022-10-16T14:44:51;0.00;;;0.00;;
54815;SDS011;40715;55.752;37.884;2022-10-16T14:47:21;0.00;;;0.00;;
54815;SDS011;40715;55.752;37.884;2022-10-16T14:49:53;0.00;;;0.00;;
54815;SDS011;40715;55.752;37.884;2022-10-16T14:52:25;0.00;;;0.00;;
54815;SDS011;40715;55.752;37.884;2022-10-16T14:54:52;0.00;;;0.00;;
54815;SDS011;40715;55.752;37.884;2022-10-16T14:57:22;0.00;;;0.00;;
54815;SDS011;40715;55.752;37.884;2022-10-16T14:59:53;0.20;;;0.00;;
54815;SDS011;40715;55.752;37.884;2022-10-16T15:04:47;0.00;;;0.00;;
54815;SDS011;40715;55.752;37.884;2022-10-16T15:07:15;0.00;;;0.00;;
54815;SDS011;40715;55.752;37.884;2022-10-16T15:09:42;0.00;;;0.00;;
54815;SDS011;40715;55.752;37.884;2022-10-16T15:12:11;0.00;;;0.00;;
54815;SDS011;40715;55.752;37.884;2022-10-16T15:14:38;0.00;;;0.00;;
54815;SDS011;40715;55.752;37.884;2022-10-16T15:17:09;0.00;;;0.00;;
54815;SDS011;40715;55.752;37.884;2022-10-16T15:19:37;0.03;;;0.00;;
54815;SDS011;40715;55.752;37.884;2022-10-16T15:22:04;0.00;;;0.00;;
54815;SDS011;40715;55.752;37.884;2022-10-16T15:24:31;0.00;;;0.00;;
54815;SDS011;40715;55.752;37.884;2022-10-16T15:26:58;0.03;;;0.00;;
54815;SDS011;40715;55.752;37.884;2022-10-16T15:29:25;0.00;;;0.00;;
54815;SDS011;40715;55.752;37.884;2022-10-16T15:31:54;0.00;;;0.00;;
54815;SDS011;40715;55.752;37.884;2022-10-16T15:34:21;0.00;;;0.00;;
54815;SDS011;40715;55.752;37.884;2022-10-16T15:36:48;0.00;;;0.00;;
54815;SDS011;40715;55.752;37.884;2022-10-16T15:39:16;0.00;;;0.00;;
54815;SDS011;40715;55.752;37.884;2022-10-16T15:41:47;0.00;;;0.00;;
54815;SDS011;40715;55.752;37.884;2022-10-16T15:44:17;0.00;;;0.00;;
54815;SDS011;40715;55.752;37.884;2022-10-16T15:46:44;0.00;;;0.00;;
54815;SDS011;40715;55.752;37.884;2022-10-16T15:49:12;0.00;;;0.00;;
54815;SDS011;40715;55.752;37.884;2022-10-16T15:51:39;0.00;;;0.00;;
54815;SDS011;40715;55.752;37.884;2022-10-16T15:54:07;0.00;;;0.00;;
54815;SDS011;40715;55.752;37.884;2022-10-16T15:56:35;0.00;;;0.00;;
54815;SDS011;40715;55.752;37.884;2022-10-16T15:59:04;0.00;;;0.00;;
54815;SDS011;40715;55.752;37.884;2022-10-16T16:01:32;0.00;;;0.00;;
54815;SDS011;40715;55.752;37.884;2022-10-16T16:04:00;0.00;;;0.00;;
54815;SDS011;40715;55.752;37.884;2022-10-16T16:06:32;0.00;;;0.00;;
54815;SDS011;40715;55.752;37.884;2022-10-16T16:08:59;0.00;;;0.00;;
54815;SDS011;40715;55.752;37.884;2022-10-16T16:11:26;0.00;;;0.00;;
54815;SDS011;40715;55.752;37.884;2022-10-16T16:13:53;0.00;;;0.00;;
54815;SDS011;40715;55.752;37.884;2022-10-16T16:16:21;0.00;;;0.00;;
54815;SDS011;40715;55.752;37.884;2022-10-16T16:18:52;0.00;;;0.00;;
54815;SDS011;40715;55.752;37.884;2022-10-16T16:21:20;0.00;;;0.00;;
54815;SDS011;40715;55.752;37.884;2022-10-16T16:23:47;0.00;;;0.00;;
54815;SDS011;40715;55.752;37.884;2022-10-16T16:26:22;0.00;;;0.00;;
54815;SDS011;40715;55.752;37.884;2022-10-16T16:28:54;0.00;;;0.00;;
54815;SDS011;40715;55.752;37.884;2022-10-16T16:31:26;0.00;;;0.00;;
54815;SDS011;40715;55.752;37.884;2022-10-16T16:33:54;0.00;;;0.00;;
54815;SDS011;40715;55.752;37.884;2022-10-16T16:36:23;0.00;;;0.00;;
54815;SDS011;40715;55.752;37.884;2022-10-16T16:38:51;0.00;;;0.00;;
54815;SDS011;40715;55.752;37.884;2022-10-16T16:41:22;0.00;;;0.00;;
54815;SDS011;40715;55.752;37.884;2022-10-16T16:43:52;0.00;;;0.00;;
54815;SDS011;40715;55.752;37.884;2022-10-16T16:46:21;0.00;;;0.00;;
54815;SDS011;40715;55.752;37.884;2022-10-16T16:48:48;0.00;;;0.00;;
54815;SDS011;40715;55.752;37.884;2022-10-16T16:51:21;0.00;;;0.00;;
54815;SDS011;40715;55.752;37.884;2022-10-16T16:53:49;0.00;;;0.00;;
54815;SDS011;40715;55.752;37.884;2022-10-16T16:56:17;0.00;;;0.00;;
54815;SDS011;40715;55.752;37.884;2022-10-16T16:58:46;0.00;;;0.00;;
54815;SDS011;40715;55.752;37.884;2022-10-16T17:01:14;0.00;;;0.00;;